Latest Weather Observations for Bougainville Reef

IDQ60801

Issued at 5:05 pm EST Monday 21 April 2014 (issued every 30 minutes, with the page automatically refreshed every 10 minutes)

About weather observations | Map of weather stations | Latest weather observations for QLD | Other Formats
Station Details ID: 200840 Name: BOUGAINVILLE REEF Lat: -15.49 Lon: 147.12 Height: 0.0 m
Data from the previous 72 hours. | See also: Recent months for locations in Queensland
Date/Time
EST
Temp
°C
App
Temp
°C
Dew
Point
Rel
Hum
%
Delta-T
°C
Wind Press
QNH
hPa
Press
MSL
hPa
Rain
since 9 am
mm
Dir
 
Spd
km/h
Gust
km/h
Spd
kts
Gust
kts
21/05:00pm 27.2 - - - - ESE 46 54 25 29 1012.4 1012.2 -
21/04:30pm 27.4 - - - - ESE 48 56 26 30 1011.9 - -
21/04:00pm 27.4 - - - - ESE 46 50 25 27 1011.6 1011.4 -
21/03:30pm 27.4 - - - - ESE 48 56 26 30 1011.1 - -
21/03:00pm 27.4 - - - - ESE 48 54 26 29 1011.0 1010.8 -
21/02:30pm 27.0 - - - - ESE 46 54 25 29 1010.9 - -
21/02:00pm 26.5 - - - - ESE 43 52 23 28 1011.2 1011.2 -
21/01:30pm 26.1 - - - - ESE 43 48 23 26 1011.7 - -
21/01:00pm 26.3 - - - - ESE 41 50 22 27 1012.1 1012.1 -
21/12:30pm 26.2 - - - - ESE 46 54 25 29 1012.4 - -
21/12:00pm 26.9 - - - - ESE 44 59 24 32 1012.9 1013.0 -
21/11:30am 26.7 - - - - ESE 48 56 26 30 1013.3 - -
21/11:00am 27.0 - - - - ESE 46 50 25 27 1013.9 1013.9 -
21/10:30am 27.0 - - - - ESE 44 52 24 28 1014.1 - -
21/10:00am 26.6 - - - - ESE 46 52 25 28 1014.2 1014.0 -
21/09:30am 26.8 - - - - ESE 41 50 22 27 1014.1 - -
21/09:00am 26.7 - - - - ESE 44 52 24 28 1013.8 1013.6 -
21/08:38am 26.6 - - - - ESE 43 54 23 29 1013.6 - -
21/08:37am 26.4 - - - - NNE 44 54 24 29 1013.6 - -
21/08:36am 26.2 - - - - N 44 54 24 29 1013.6 - -
21/08:30am 26.1 - - - - ESE 46 56 25 30 1013.6 - -
21/08:00am 25.9 - - - - ESE 52 61 28 33 1013.4 1013.3 -
21/07:30am 25.9 - - - - ESE 54 61 29 33 1013.2 - -
21/07:00am 24.6 - - - - ESE 54 56 29 30 1013.1 1012.9 -
21/06:30am 24.2 - - - - ESE 54 67 29 36 1012.7 - -
21/06:00am 25.7 - - - - ESE 52 59 28 32 1012.2 1011.9 -
21/05:30am 26.6 - - - - ESE 48 61 26 33 1012.0 - -
21/05:00am 25.4 - - - - ESE 57 63 31 34 1011.8 1011.6 -
21/04:30am 26.5 - - - - ESE 48 59 26 32 1011.5 - -
21/04:00am 26.7 - - - - ESE 50 61 27 33 1011.4 1011.2 -
21/03:30am 26.6 - - - - ESE 46 56 25 30 1011.2 - -
21/03:00am 26.7 - - - - ESE 46 61 25 33 1011.3 1011.2 -
21/02:30am 26.8 - - - - SE 46 56 25 30 1011.3 - -
21/02:00am 26.9 - - - - ESE 44 57 24 31 1011.4 1011.4 -
21/01:30am 26.7 - - - - ESE 44 54 24 29 1011.7 - -
21/01:00am 26.5 - - - - ESE 46 57 25 31 1012.0 1012.0 -
21/12:30am 26.4 - - - - SE 46 57 25 31 1012.3 - -
21/12:00am 26.5 - - - - SE 44 52 24 28 1012.7 1012.7 -
 
Date/Time
EST
Temp
°C
App
Temp
°C
Dew
Point
Rel
Hum
%
Delta-T
°C
Wind Press
QNH
hPa
Press
MSL
hPa
Rain
since 9 am
mm
Dir
 
Spd
km/h
Gust
km/h
Spd
kts
Gust
kts
20/11:30pm 26.7 - - - - SE 46 56 25 30 1013.1 - -
20/11:00pm 26.5 - - - - ESE 43 50 23 27 1013.3 1013.1 -
20/10:57pm 26.7 - - - - SSE 37 50 20 27 1013.3 - -
20/10:54pm 26.6 - - - - E 46 50 25 27 1013.2 - -
20/10:30pm 26.5 - - - - SE 37 46 20 25 1013.4 - -
20/10:00pm 26.1 - - - - SE 43 57 23 31 1013.4 1013.4 -
20/09:30pm 25.8 - - - - SE 46 61 25 33 1013.6 - -
20/09:00pm 26.3 - - - - SE 44 61 24 33 1013.6 1013.4 -
20/08:31pm 24.6 - - - - SSE 41 59 22 32 1013.8 - -
20/08:30pm 24.9 - - - - SSE 43 59 23 32 1013.8 - -
20/08:23pm 25.9 - - - - SE 28 52 15 28 1013.4 - -
20/08:00pm 24.7 - - - - ESE 41 48 22 26 1013.5 1013.3 -
20/07:45pm 25.2 - - - - SE 28 56 15 30 1013.3 - -
20/07:30pm 25.4 - - - - SSE 26 41 14 22 1013.3 - -
20/07:10pm 26.1 - - - - SE 33 57 18 31 1012.9 - -
20/07:00pm 26.8 - - - - SSE 28 46 15 25 1012.7 1012.5 -
20/06:47pm 26.9 - - - - SSE 28 46 15 25 1012.6 - -
20/06:30pm 27.0 - - - - SSE 30 44 16 24 1012.4 - -
20/06:00pm 26.6 - - - - SE 33 41 18 22 1012.1 1012.1 -
20/05:55pm 26.8 - - - - SSE 30 48 16 26 1012.2 - -
20/05:30pm 26.9 - - - - SE 33 43 18 23 1012.1 - -
20/05:00pm 26.9 - - - - SSE 32 43 17 23 1011.8 1011.7 -
20/04:30pm 26.8 - - - - SE 37 44 20 24 1011.5 - -
20/04:00pm 26.8 - - - - SE 35 44 19 24 1011.4 1011.2 -
20/03:30pm 26.8 - - - - SSE 35 44 19 24 1011.1 - -
20/03:00pm 26.8 - - - - SE 35 46 19 25 1010.9 1010.8 -
20/02:30pm 26.7 - - - - SE 37 44 20 24 1010.8 - -
20/02:00pm 26.8 - - - - ESE 37 43 20 23 1011.1 1011.0 -
20/01:30pm 26.9 - - - - SE 37 44 20 24 1011.4 - -
20/01:00pm 26.9 - - - - ESE 37 46 20 25 1011.8 1011.8 -
20/12:30pm 26.8 - - - - ESE 37 46 20 25 1012.2 - -
20/12:00pm 26.7 - - - - SE 37 46 20 25 1012.6 1012.7 -
20/11:30am 26.9 - - - - ESE 37 46 20 25 1013.2 - -
20/11:00am 26.8 - - - - SE 39 48 21 26 1013.3 1013.3 -
20/10:30am 26.7 - - - - SE 39 46 21 25 1013.5 - -
20/10:17am 26.8 - - - - SE 39 46 21 25 1013.4 - -
20/10:07am 27.0 - - - - E 41 48 22 26 1013.5 - -
20/10:00am 26.9 - - - - ESE 41 56 22 30 1013.5 1013.3 -
20/09:30am 26.8 - - - - SE 41 56 22 30 1013.4 - -
20/09:00am 26.8 - - - - SE 39 50 21 27 1013.3 1013.0 -
20/08:30am 26.6 - - - - SE 37 46 20 25 1013.0 - -
20/08:00am 26.6 - - - - SE 35 48 19 26 1012.7 1012.6 -
20/07:30am 26.6 - - - - SE 35 44 19 24 1012.6 - -
20/07:00am 26.5 - - - - SE 35 43 19 23 1012.4 1012.2 -
20/06:30am 26.5 - - - - SE 35 41 19 22 1012.1 - -
20/06:00am 26.6 - - - - ESE 35 44 19 24 1011.9 1011.6 -
20/05:30am 26.4 - - - - ESE 35 44 19 24 1011.6 - -
20/05:00am 26.3 - - - - ESE 35 43 19 23 1011.5 1011.3 -
20/04:30am 26.3 - - - - ESE 37 43 20 23 1011.5 - -
20/04:00am 26.3 - - - - ESE 33 41 18 22 1011.4 1011.4 -
20/03:30am 26.3 - - - - ESE 39 48 21 26 1011.5 - -
20/03:00am 26.4 - - - - ESE 35 44 19 24 1011.6 1011.6 -
20/02:30am 26.4 - - - - ESE 33 41 18 22 1011.8 - -
20/02:00am 26.4 - - - - ESE 37 48 20 26 1012.0 1011.9 -
20/01:30am 26.5 - - - - ESE 37 46 20 25 1012.3 - -
20/01:00am 26.6 - - - - ESE 37 50 20 27 1012.4 1012.5 -
20/12:30am 26.5 - - - - ESE 39 48 21 26 1012.8 - -
20/12:00am 26.6 - - - - ESE 37 46 20 25 1013.1 1013.1 -
 
Date/Time
EST
Temp
°C
App
Temp
°C
Dew
Point
Rel
Hum
%
Delta-T
°C
Wind Press
QNH
hPa
Press
MSL
hPa
Rain
since 9 am
mm
Dir
 
Spd
km/h
Gust
km/h
Spd
kts
Gust
kts
19/11:30pm 26.7 - - - - ESE 37 46 20 25 1013.3 - -
19/11:00pm 26.8 - - - - ESE 39 46 21 25 1013.3 1013.3 -
19/10:30pm 26.8 - - - - ESE 41 48 22 26 1013.5 - -
19/10:00pm 26.8 - - - - ESE 41 54 22 29 1013.5 1013.4 -
19/09:30pm 26.8 - - - - ESE 43 50 23 27 1013.5 - -
19/09:00pm 26.7 - - - - ESE 43 52 23 28 1013.4 1013.3 -
19/08:30pm 26.7 - - - - ESE 39 50 21 27 1013.3 - -
19/08:00pm 26.8 - - - - ESE 37 48 20 26 1013.3 1013.1 -
19/07:30pm 26.8 - - - - ESE 41 52 22 28 1013.0 - -
19/07:00pm 26.9 - - - - ESE 39 48 21 26 1012.7 1012.6 -
19/06:30pm 26.8 - - - - ESE 37 46 20 25 1012.5 - -
19/06:00pm 26.8 - - - - ESE 37 48 20 26 1012.2 1012.0 -
19/05:42pm 26.8 - - - - SE 37 46 20 25 1012.0 - -
19/05:40pm 26.8 - - - - E 35 46 19 25 1012.0 - -
19/05:30pm 26.8 - - - - SE 39 46 21 25 1011.9 - -
19/05:00pm 26.8 - - - - SE 39 48 21 26 1011.8 1011.5 -
19/04:30pm 26.8 - - - - ESE 41 50 22 27 1011.4 - -
19/04:00pm 26.8 - - - - ESE 41 46 22 25 1011.1 1010.9 -
19/03:30pm 26.7 - - - - SE 35 46 19 25 1011.2 - -
19/03:00pm 26.7 - - - - SE 37 48 20 26 1011.4 1011.4 -
19/02:30pm 26.8 - - - - SE 33 43 18 23 1011.7 - -
19/02:00pm 26.8 - - - - SE 33 43 18 23 1012.0 1012.1 -
19/01:30pm 27.0 - - - - SE 33 43 18 23 1012.5 - -
19/01:00pm 26.8 - - - - ESE 37 46 20 25 1012.7 1012.7 -
19/12:30pm 26.8 - - - - ESE 39 46 21 25 1013.0 - -
19/12:00pm 26.7 - - - - ESE 37 46 20 25 1013.4 1013.5 -
19/11:30am 26.7 - - - - ESE 39 46 21 25 1013.8 - -
19/11:00am 26.8 - - - - ESE 39 46 21 25 1014.2 1014.3 -
19/10:30am 26.9 - - - - ESE 41 48 22 26 1014.5 - -
19/10:00am 26.8 - - - - ESE 41 46 22 25 1014.7 1014.4 -
19/09:30am 26.9 - - - - ESE 39 48 21 26 1014.4 - -
19/09:24am 26.9 - - - - ESE 39 48 21 26 1014.3 - -
19/09:23am 26.8 - - - - NE 41 48 22 26 1014.3 - -
19/09:00am 26.8 - - - - ESE 39 46 21 25 1014.0 1013.9 -
19/08:30am 27.0 - - - - ESE 41 48 22 26 1013.9 - -
19/08:00am 27.0 - - - - ESE 41 46 22 25 1013.7 1013.5 -
19/07:30am 26.7 - - - - ESE 39 48 21 26 1013.5 - -
19/07:00am 26.8 - - - - ESE 37 44 20 24 1013.2 1013.1 -
19/06:30am 26.7 - - - - ESE 37 43 20 23 1013.2 - -
19/06:00am 26.8 - - - - ESE 41 52 22 28 1012.8 1012.7 -
19/05:30am 26.8 - - - - ESE 39 46 21 25 1012.8 - -
19/05:00am 26.8 - - - - ESE 39 48 21 26 1012.7 1012.5 -
19/04:30am 26.7 - - - - ESE 37 44 20 24 1012.7 - -
19/04:00am 26.6 - - - - ESE 37 46 20 25 1012.7 1012.6 -
19/03:30am 26.9 - - - - ESE 37 44 20 24 1012.8 - -
19/03:00am 26.8 - - - - ESE 37 44 20 24 1012.8 1012.8 -
19/02:30am 26.8 - - - - ESE 39 46 21 25 1012.8 - -
19/02:00am 26.7 - - - - ESE 43 46 23 25 1013.1 1013.0 -
19/01:30am 27.0 - - - - ESE 39 44 21 24 1013.3 - -
19/01:00am 27.0 - - - - ESE 37 46 20 25 1013.7 1013.7 -
19/12:30am 27.0 - - - - ESE 39 46 21 25 1014.0 - -
19/12:00am 27.0 - - - - ESE 41 48 22 26 1014.3 1014.3 -
 
Date/Time
EST
Temp
°C
App
Temp
°C
Dew
Point
Rel
Hum
%
Delta-T
°C
Wind Press
QNH
hPa
Press
MSL
hPa
Rain
since 9 am
mm
Dir
 
Spd
km/h
Gust
km/h
Spd
kts
Gust
kts
18/11:30pm 26.9 - - - - ESE 41 48 22 26 1014.5 - -
18/11:00pm 26.9 - - - - SE 33 46 18 25 1014.6 1014.5 -
18/10:30pm 27.1 - - - - ESE 35 46 19 25 1014.6 - -
18/10:00pm 27.2 - - - - SE 39 50 21 27 1014.5 1014.3 -
18/09:30pm 27.2 - - - - SE 39 48 21 26 1014.4 - -
18/09:00pm 27.1 - - - - SE 35 46 19 25 1014.5 1014.5 -
18/08:30pm 27.3 - - - - ESE 39 46 21 25 1014.4 - -
18/08:00pm 27.1 - - - - ESE 39 48 21 26 1014.2 1014.0 -
18/07:30pm 27.3 - - - - ESE 35 44 19 24 1013.8 - -
18/07:00pm 27.4 - - - - ESE 41 48 22 26 1013.3 1013.1 -
18/06:30pm 27.2 - - - - ESE 37 44 20 24 1013.0 - -
18/06:00pm 27.3 - - - - ESE 39 43 21 23 1012.8 1012.6 -
18/05:30pm 27.2 - - - - ESE 41 48 22 26 1012.4 - -

Other Formats:

Comma delimited format used in spreadsheet applications
http://www.bom.gov.au/fwo/IDQ60801/IDQ60801.95288.axf

JavaScript Object Notation format (JSON) in row-major order
http://www.bom.gov.au/fwo/IDQ60801/IDQ60801.95288.json